Agenda, Kansas
Current Conditions -  °F | °C
As of 11:55 PM on Sunday 25 Jan 2015 (Local Time) from KCNK Reporting Station
Clear Clear  
Wind Chill: 24°   Ceiling: Unl
Heat Index: 32°   Visibility: 10mi
Dew Point: 28°   Wind: 9mph
Humidity: 85%   Direction: 220°SW
Pressure: 30.09"   Gusts: NA
Location:  39.71°N, 97.43°W
Report Text: KCNK 260555Z AUTO 22008KT 10SM CLR 00/M02 A3009 RMK AO2 SLP197 T00001022 10050 21022 400831022 57003 $
Loading
Personal Weather Stations






























Interactive Weather Map New forecast layout! Learn more

10-Day Weather Forecast

Advertisements
Track Severe Weather on mobile